Marble Canyon, AZ (86036)

9:20 PM MST on September 15, 2014 (GMT -0700)
Page Municipal | Change Station
CLOSE
Current Station
Airport
Location: Page,
Elevation: 4308 ft
Nearby Weather Stations

Elev 4308 ft 36.92 °N, 111.45 °W | Updated 27 minutes ago

Clear
Clear
83 °F
Feels Like 83 °F
N
6
Wind Variable Wind from SSE

Today
High -- | Low -- °F
--% Chance of Precip.
Yesterday
High -- | Low -- °F
Precip. -- in
6:08 AM 6:33 PM
Waning Gibbous, 49% visible
Pressure 29.88 in
Visibility 10.0 miles
Clouds Clear
Dew Point 38 °F
Humidity 20%
Rainfall 0.00 in
Snow Depth 0 in , 0 in , 29 in
UV 0 out of 12
Pollen 6.00 out of 12
Air Quality Not available.
Flu Activity Not available.
METAR KPGA 160353Z AUTO 16005KT 10SM CLR 28/03 A3008 RMK AO2 SLP117 T02830033

More Conditions Fewer Conditions

Pressure 29.88 in
Visibility 10.0 miles
Clouds Clear
Dew Point 38 °F
Humidity 20%
Rainfall 0.00 in
Snow Depth 0 in , 0 in , 29 in
UV 0 out of 12
Pollen 6.00 out of 12
Air Quality Not available.
Flu Activity Not available.
METAR KPGA 160353Z AUTO 16005KT 10SM CLR 28/03 A3008 RMK AO2 SLP117 T02830033

More Conditions Fewer Conditions

10-Day Weather Forecast

Almanac

Astronomy

Sep. 15, 2014 Rise Set
Actual Time 6:08 AM MST 6:33 PM MST
Civil Twilight 5:42 AM MST 6:59 PM MST
Nautical Twilight 5:12 AM MST 7:30 PM MST
Astronomical Twilight 4:41 AM MST 8:01 PM MST
Moon 11:28 PM MST (9/15) 1:03 PM MST (9/15)
Length of Visible Light 13h 17m
Length of Day
12h 25m
Tomorrow will be 2m 18s shorter.
Waning Gibbous, 49% of the Moon is Illuminated
Sep 16
Waning Gibbous
Sep 24
New
Oct 1
First Quarter
Oct 8
Full
Oct 15
Last Quarter

Today's Extremes

State Highs State Lows

Community

WunderPhotos

Upload Photos

1,753,702 photos uploaded!

Nearby

Snow Depth

Station Depth Elevation
Maverick Fork 0 in 9200 ft
Happy Jack 0 in 7630 ft
Beaver Head 29 in 7990 ft
Promontory 0 in 7930 ft
Snowslide Canyon 0 in 9730 ft

Earthquake Activity

City Distance Mag. Time & Date
No recent earthquake activity has been reported nearby.
Minimum magnitude displayed is 2.5.

Coastal Water Temperatures

Place Temperature
No Stations Reporting

Nearby Weather Stations